• 1385014 10153382300060425 128216538 n
  • 3
  • 6
  • 7
  • 1
  • 10
  • 未命名
  • 121
  • 55
  • 2
  • cargo

Click here and log in to see your monthly flight duties. 請按此登入個人班表區

Welcome aboard

Current Weather

[source: ADDS]
METAR
RCTP 040030Z 09003KT 9999 FEW016 BKN030 BKN050 23/18 Q1012 NOSIG RMK A2991 =
TAF
TAF RCTP 032300Z 0400/0506 06010KT 8000 FEW010 BKN032 TEMPO 0400/0402 4000 RA FEW005 BKN016 BKN030 TEMPO 0402/0408 04015KT BECMG 0412/0414 5000 -RA FEW010 BKN016 BKN030 =